sensor_id;sensor_type;location;lat;lon;timestamp;temperature;humidity
63051;SHT30;49136;47.416;19.402;2023-03-03T00:01:10;-1.00;99.99
63051;SHT30;49136;47.416;19.402;2023-03-03T00:03:35;-0.98;99.99
63051;SHT30;49136;47.416;19.402;2023-03-03T00:06:02;-1.00;99.99
63051;SHT30;49136;47.416;19.402;2023-03-03T00:08:28;-0.96;99.99
63051;SHT30;49136;47.416;19.402;2023-03-03T00:10:53;-1.04;99.99
63051;SHT30;49136;47.416;19.402;2023-03-03T00:13:24;-1.03;99.99
63051;SHT30;49136;47.416;19.402;2023-03-03T00:15:51;-1.16;99.99
63051;SHT30;49136;47.416;19.402;2023-03-03T00:18:27;-1.15;99.99
63051;SHT30;49136;47.416;19.402;2023-03-03T00:20:59;-1.27;99.99
63051;SHT30;49136;47.416;19.402;2023-03-03T00:23:39;-1.28;99.99
63051;SHT30;49136;47.416;19.402;2023-03-03T00:26:22;-1.38;99.99
63051;SHT30;49136;47.416;19.402;2023-03-03T00:28:51;-1.28;99.99
63051;SHT30;49136;47.416;19.402;2023-03-03T00:31:20;-1.29;99.99
63051;SHT30;49136;47.416;19.402;2023-03-03T00:33:50;-1.36;99.99
63051;SHT30;49136;47.416;19.402;2023-03-03T00:41:42;-1.34;99.99
63051;SHT30;49136;47.416;19.402;2023-03-03T00:46:49;-1.47;99.99
63051;SHT30;49136;47.416;19.402;2023-03-03T00:49:23;-1.46;99.99
63051;SHT30;49136;47.416;19.402;2023-03-03T00:51:51;-1.39;99.99
63051;SHT30;49136;47.416;19.402;2023-03-03T00:54:16;-1.35;99.99
63051;SHT30;49136;47.416;19.402;2023-03-03T00:56:42;-1.36;99.99
63051;SHT30;49136;47.416;19.402;2023-03-03T00:59:07;-1.19;99.99
63051;SHT30;49136;47.416;19.402;2023-03-03T01:01:32;-1.27;99.99
63051;SHT30;49136;47.416;19.402;2023-03-03T01:03:58;-1.32;99.99
63051;SHT30;49136;47.416;19.402;2023-03-03T01:06:23;-1.25;99.99
63051;SHT30;49136;47.416;19.402;2023-03-03T01:08:49;-1.19;99.99
63051;SHT30;49136;47.416;19.402;2023-03-03T01:11:19;-1.21;99.99
63051;SHT30;49136;47.416;19.402;2023-03-03T01:13:47;-1.24;99.99
63051;SHT30;49136;47.416;19.402;2023-03-03T01:16:13;-1.28;99.99
63051;SHT30;49136;47.416;19.402;2023-03-03T01:18:39;-1.24;99.99
63051;SHT30;49136;47.416;19.402;2023-03-03T01:21:06;-1.08;99.99
63051;SHT30;49136;47.416;19.402;2023-03-03T01:23:32;-1.05;99.99
63051;SHT30;49136;47.416;19.402;2023-03-03T01:25:58;-1.05;99.99
63051;SHT30;49136;47.416;19.402;2023-03-03T01:28:24;-1.01;99.99
63051;SHT30;49136;47.416;19.402;2023-03-03T01:30:49;-0.97;99.99
63051;SHT30;49136;47.416;19.402;2023-03-03T01:33:15;-0.93;99.99
63051;SHT30;49136;47.416;19.402;2023-03-03T01:35:45;-0.87;99.99
63051;SHT30;49136;47.416;19.402;2023-03-03T01:38:12;-0.83;99.99
63051;SHT30;49136;47.416;19.402;2023-03-03T01:40:37;-0.79;99.99
63051;SHT30;49136;47.416;19.402;2023-03-03T01:43:03;-0.83;99.99
63051;SHT30;49136;47.416;19.402;2023-03-03T01:45:41;-0.86;99.99
63051;SHT30;49136;47.416;19.402;2023-03-03T01:50:56;-0.77;99.99
63051;SHT30;49136;47.416;19.402;2023-03-03T01:53:33;-0.74;99.99
63051;SHT30;49136;47.416;19.402;2023-03-03T01:56:01;-0.73;99.99
63051;SHT30;49136;47.416;19.402;2023-03-03T01:58:34;-0.70;99.99
63051;SHT30;49136;47.416;19.402;2023-03-03T02:01:04;-0.62;99.99
63051;SHT30;49136;47.416;19.402;2023-03-03T02:03:30;-0.32;99.99
63051;SHT30;49136;47.416;19.402;2023-03-03T02:05:59;-0.31;99.99
63051;SHT30;49136;47.416;19.402;2023-03-03T02:08:29;-0.27;99.99
63051;SHT30;49136;47.416;19.402;2023-03-03T02:10:59;-0.17;99.99
63051;SHT30;49136;47.416;19.402;2023-03-03T02:13:25;-0.14;99.99
63051;SHT30;49136;47.416;19.402;2023-03-03T02:15:51;-0.09;99.99
63051;SHT30;49136;47.416;19.402;2023-03-03T02:18:18;-0.01;99.99
63051;SHT30;49136;47.416;19.402;2023-03-03T02:23:29;0.15;99.99
63051;SHT30;49136;47.416;19.402;2023-03-03T02:28:32;0.21;99.99
63051;SHT30;49136;47.416;19.402;2023-03-03T02:31:00;0.24;99.99
63051;SHT30;49136;47.416;19.402;2023-03-03T02:33:26;0.25;99.99
63051;SHT30;49136;47.416;19.402;2023-03-03T02:35:52;0.25;99.99
63051;SHT30;49136;47.416;19.402;2023-03-03T02:43:38;0.26;99.99
63051;SHT30;49136;47.416;19.402;2023-03-03T02:46:05;0.26;99.99
63051;SHT30;49136;47.416;19.402;2023-03-03T02:48:31;0.28;99.99
63051;SHT30;49136;47.416;19.402;2023-03-03T02:50:57;0.31;99.99
63051;SHT30;49136;47.416;19.402;2023-03-03T02:53:22;0.37;99.99
63051;SHT30;49136;47.416;19.402;2023-03-03T02:55:47;0.31;99.99
63051;SHT30;49136;47.416;19.402;2023-03-03T02:58:13;0.32;99.99
63051;SHT30;49136;47.416;19.402;2023-03-03T03:00:38;0.37;99.99
63051;SHT30;49136;47.416;19.402;2023-03-03T03:03:04;0.39;99.99
63051;SHT30;49136;47.416;19.402;2023-03-03T03:05:29;0.45;99.99
63051;SHT30;49136;47.416;19.402;2023-03-03T03:07:55;0.46;99.99
63051;SHT30;49136;47.416;19.402;2023-03-03T03:10:20;0.53;99.99
63051;SHT30;49136;47.416;19.402;2023-03-03T03:12:45;0.56;99.99
63051;SHT30;49136;47.416;19.402;2023-03-03T03:15:11;0.62;99.99
63051;SHT30;49136;47.416;19.402;2023-03-03T03:17:37;0.72;99.99
63051;SHT30;49136;47.416;19.402;2023-03-03T03:20:03;0.79;99.99
63051;SHT30;49136;47.416;19.402;2023-03-03T03:22:28;0.87;99.99
63051;SHT30;49136;47.416;19.402;2023-03-03T03:24:54;0.88;99.99
63051;SHT30;49136;47.416;19.402;2023-03-03T03:27:19;0.90;99.99
63051;SHT30;49136;47.416;19.402;2023-03-03T03:29:45;0.94;99.99
63051;SHT30;49136;47.416;19.402;2023-03-03T03:32:10;1.07;99.99
63051;SHT30;49136;47.416;19.402;2023-03-03T03:34:37;1.12;99.99
63051;SHT30;49136;47.416;19.402;2023-03-03T03:37:02;1.14;99.99
63051;SHT30;49136;47.416;19.402;2023-03-03T03:39:28;1.19;99.99
63051;SHT30;49136;47.416;19.402;2023-03-03T03:41:53;1.29;99.99
63051;SHT30;49136;47.416;19.402;2023-03-03T03:44:19;1.35;99.99
63051;SHT30;49136;47.416;19.402;2023-03-03T03:46:44;1.31;99.99
63051;SHT30;49136;47.416;19.402;2023-03-03T03:49:09;1.39;99.99
63051;SHT30;49136;47.416;19.402;2023-03-03T03:51:35;1.38;99.99
63051;SHT30;49136;47.416;19.402;2023-03-03T03:54:05;1.39;99.99
63051;SHT30;49136;47.416;19.402;2023-03-03T03:56:30;1.40;99.99
63051;SHT30;49136;47.416;19.402;2023-03-03T03:58:56;1.42;99.99
63051;SHT30;49136;47.416;19.402;2023-03-03T04:01:21;1.44;99.99
63051;SHT30;49136;47.416;19.402;2023-03-03T04:03:47;1.49;99.99
63051;SHT30;49136;47.416;19.402;2023-03-03T04:06:13;1.47;99.99
63051;SHT30;49136;47.416;19.402;2023-03-03T04:08:39;1.60;99.99
63051;SHT30;49136;47.416;19.402;2023-03-03T04:11:04;1.60;99.99
63051;SHT30;49136;47.416;19.402;2023-03-03T04:13:30;1.66;99.99
63051;SHT30;49136;47.416;19.402;2023-03-03T04:15:56;1.70;99.99
63051;SHT30;49136;47.416;19.402;2023-03-03T04:18:21;1.68;99.99
63051;SHT30;49136;47.416;19.402;2023-03-03T04:20:47;1.73;99.99
63051;SHT30;49136;47.416;19.402;2023-03-03T04:23:12;1.71;99.99
63051;SHT30;49136;47.416;19.402;2023-03-03T04:25:39;1.70;99.99
63051;SHT30;49136;47.416;19.402;2023-03-03T04:28:04;1.59;99.99
63051;SHT30;49136;47.416;19.402;2023-03-03T04:30:30;1.52;99.99
63051;SHT30;49136;47.416;19.402;2023-03-03T04:32:56;1.47;99.99
63051;SHT30;49136;47.416;19.402;2023-03-03T04:35:21;1.67;99.99
63051;SHT30;49136;47.416;19.402;2023-03-03T04:37:46;1.61;99.99
63051;SHT30;49136;47.416;19.402;2023-03-03T04:40:12;1.49;99.99
63051;SHT30;49136;47.416;19.402;2023-03-03T04:42:37;1.44;99.99
63051;SHT30;49136;47.416;19.402;2023-03-03T04:45:04;1.36;99.99
63051;SHT30;49136;47.416;19.402;2023-03-03T04:47:30;1.32;99.99
63051;SHT30;49136;47.416;19.402;2023-03-03T04:49:56;1.25;99.99
63051;SHT30;49136;47.416;19.402;2023-03-03T04:52:22;1.12;99.99
63051;SHT30;49136;47.416;19.402;2023-03-03T04:54:47;1.07;99.99
63051;SHT30;49136;47.416;19.402;2023-03-03T04:57:12;1.02;99.99
63051;SHT30;49136;47.416;19.402;2023-03-03T04:59:38;1.00;99.99
63051;SHT30;49136;47.416;19.402;2023-03-03T05:02:03;1.08;99.99
63051;SHT30;49136;47.416;19.402;2023-03-03T05:04:29;1.18;99.99
63051;SHT30;49136;47.416;19.402;2023-03-03T05:06:54;1.29;99.99
63051;SHT30;49136;47.416;19.402;2023-03-03T05:09:21;1.50;99.99
63051;SHT30;49136;47.416;19.402;2023-03-03T05:11:47;1.47;99.99
63051;SHT30;49136;47.416;19.402;2023-03-03T05:14:12;1.32;99.99
63051;SHT30;49136;47.416;19.402;2023-03-03T05:16:38;1.15;99.99
63051;SHT30;49136;47.416;19.402;2023-03-03T05:19:03;0.98;99.99
63051;SHT30;49136;47.416;19.402;2023-03-03T05:21:29;0.87;99.99
63051;SHT30;49136;47.416;19.402;2023-03-03T05:23:54;0.80;99.99
63051;SHT30;49136;47.416;19.402;2023-03-03T05:26:19;0.74;99.99
63051;SHT30;49136;47.416;19.402;2023-03-03T05:28:45;0.72;99.99
63051;SHT30;49136;47.416;19.402;2023-03-03T05:31:10;0.88;99.99
63051;SHT30;49136;47.416;19.402;2023-03-03T05:33:36;0.79;99.99
63051;SHT30;49136;47.416;19.402;2023-03-03T05:36:02;0.81;99.99
63051;SHT30;49136;47.416;19.402;2023-03-03T05:38:28;0.80;99.99
63051;SHT30;49136;47.416;19.402;2023-03-03T05:40:53;0.87;99.99
63051;SHT30;49136;47.416;19.402;2023-03-03T05:43:19;0.91;99.99
63051;SHT30;49136;47.416;19.402;2023-03-03T05:45:45;1.00;99.99
63051;SHT30;49136;47.416;19.402;2023-03-03T05:48:10;0.98;99.99
63051;SHT30;49136;47.416;19.402;2023-03-03T05:50:37;0.98;99.99
63051;SHT30;49136;47.416;19.402;2023-03-03T05:53:02;0.97;99.99
63051;SHT30;49136;47.416;19.402;2023-03-03T05:55:28;1.07;99.99
63051;SHT30;49136;47.416;19.402;2023-03-03T05:57:54;1.08;99.99
63051;SHT30;49136;47.416;19.402;2023-03-03T06:00:20;1.17;99.99
63051;SHT30;49136;47.416;19.402;2023-03-03T06:02:45;1.31;99.99
63051;SHT30;49136;47.416;19.402;2023-03-03T06:05:11;1.46;99.99
63051;SHT30;49136;47.416;19.402;2023-03-03T06:07:36;1.57;99.99
63051;SHT30;49136;47.416;19.402;2023-03-03T06:10:02;1.64;99.99
63051;SHT30;49136;47.416;19.402;2023-03-03T06:12:28;1.73;99.99
63051;SHT30;49136;47.416;19.402;2023-03-03T06:14:53;1.78;99.99
63051;SHT30;49136;47.416;19.402;2023-03-03T06:17:19;1.88;99.99
63051;SHT30;49136;47.416;19.402;2023-03-03T06:19:44;2.01;99.99
63051;SHT30;49136;47.416;19.402;2023-03-03T06:22:11;2.16;99.99
63051;SHT30;49136;47.416;19.402;2023-03-03T06:24:37;2.39;99.99
63051;SHT30;49136;47.416;19.402;2023-03-03T06:27:02;2.55;99.99
63051;SHT30;49136;47.416;19.402;2023-03-03T06:29:28;2.72;99.99
63051;SHT30;49136;47.416;19.402;2023-03-03T06:31:54;2.92;99.99
63051;SHT30;49136;47.416;19.402;2023-03-03T06:34:19;3.16;99.99
63051;SHT30;49136;47.416;19.402;2023-03-03T06:36:45;3.33;99.99
63051;SHT30;49136;47.416;19.402;2023-03-03T06:39:11;3.52;99.99
63051;SHT30;49136;47.416;19.402;2023-03-03T06:41:36;3.68;99.73
63051;SHT30;49136;47.416;19.402;2023-03-03T06:44:02;3.92;99.58
63051;SHT30;49136;47.416;19.402;2023-03-03T06:46:28;4.06;98.43
63051;SHT30;49136;47.416;19.402;2023-03-03T06:48:53;4.25;98.21
63051;SHT30;49136;47.416;19.402;2023-03-03T06:51:22;4.44;98.18
63051;SHT30;49136;47.416;19.402;2023-03-03T06:53:52;4.66;98.30
63051;SHT30;49136;47.416;19.402;2023-03-03T06:56:18;4.83;97.93
63051;SHT30;49136;47.416;19.402;2023-03-03T06:58:44;4.97;97.51
63051;SHT30;49136;47.416;19.402;2023-03-03T07:01:15;5.07;97.20
63051;SHT30;49136;47.416;19.402;2023-03-03T07:03:41;5.24;97.02
63051;SHT30;49136;47.416;19.402;2023-03-03T07:06:33;5.34;96.40
63051;SHT30;49136;47.416;19.402;2023-03-03T07:08:59;5.38;95.91
63051;SHT30;49136;47.416;19.402;2023-03-03T07:11:24;5.43;95.96
63051;SHT30;49136;47.416;19.402;2023-03-03T07:13:53;5.56;95.94
63051;SHT30;49136;47.416;19.402;2023-03-03T07:16:25;5.64;95.47
63051;SHT30;49136;47.416;19.402;2023-03-03T07:19:00;5.77;95.28
63051;SHT30;49136;47.416;19.402;2023-03-03T07:21:34;5.75;95.14
63051;SHT30;49136;47.416;19.402;2023-03-03T07:24:48;5.84;94.59
63051;SHT30;49136;47.416;19.402;2023-03-03T07:26:48;5.91;94.14
63051;SHT30;49136;47.416;19.402;2023-03-03T07:29:23;6.15;93.91
63051;SHT30;49136;47.416;19.402;2023-03-03T07:31:51;6.32;93.36
63051;SHT30;49136;47.416;19.402;2023-03-03T07:36:42;6.57;92.00
63051;SHT30;49136;47.416;19.402;2023-03-03T07:41:45;6.91;91.25
63051;SHT30;49136;47.416;19.402;2023-03-03T07:44:20;6.99;90.55
63051;SHT30;49136;47.416;19.402;2023-03-03T07:46:47;7.02;89.99
63051;SHT30;49136;47.416;19.402;2023-03-03T07:51:44;7.20;89.45
63051;SHT30;49136;47.416;19.402;2023-03-03T07:56:49;7.23;88.58
63051;SHT30;49136;47.416;19.402;2023-03-03T07:59:22;7.40;88.81
63051;SHT30;49136;47.416;19.402;2023-03-03T08:01:57;7.34;88.43
63051;SHT30;49136;47.416;19.402;2023-03-03T08:04:41;7.33;88.76
63051;SHT30;49136;47.416;19.402;2023-03-03T08:07:15;7.51;88.39
63051;SHT30;49136;47.416;19.402;2023-03-03T08:12:37;7.75;87.75
63051;SHT30;49136;47.416;19.402;2023-03-03T08:15:26;7.85;87.00
63051;SHT30;49136;47.416;19.402;2023-03-03T08:17:54;7.97;86.53
63051;SHT30;49136;47.416;19.402;2023-03-03T08:23:30;8.28;85.41
63051;SHT30;49136;47.416;19.402;2023-03-03T08:25:55;8.40;85.57
63051;SHT30;49136;47.416;19.402;2023-03-03T08:28:21;8.56;84.77
63051;SHT30;49136;47.416;19.402;2023-03-03T08:30:47;8.54;84.58
63051;SHT30;49136;47.416;19.402;2023-03-03T08:33:13;8.62;84.35
63051;SHT30;49136;47.416;19.402;2023-03-03T08:35:39;8.77;84.02
63051;SHT30;49136;47.416;19.402;2023-03-03T08:38:05;8.76;84.14
63051;SHT30;49136;47.416;19.402;2023-03-03T08:40:31;9.00;83.75
63051;SHT30;49136;47.416;19.402;2023-03-03T08:42:57;9.17;83.42
63051;SHT30;49136;47.416;19.402;2023-03-03T08:45:23;9.27;82.51
63051;SHT30;49136;47.416;19.402;2023-03-03T08:47:49;9.32;82.01
63051;SHT30;49136;47.416;19.402;2023-03-03T08:50:14;9.45;82.13
63051;SHT30;49136;47.416;19.402;2023-03-03T08:52:40;9.46;82.13
63051;SHT30;49136;47.416;19.402;2023-03-03T08:55:05;9.53;82.20
63051;SHT30;49136;47.416;19.402;2023-03-03T08:57:31;9.49;81.50
63051;SHT30;49136;47.416;19.402;2023-03-03T08:59:56;9.63;81.09
63051;SHT30;49136;47.416;19.402;2023-03-03T09:02:22;9.63;80.85
63051;SHT30;49136;47.416;19.402;2023-03-03T09:04:47;9.69;81.06
63051;SHT30;49136;47.416;19.402;2023-03-03T09:07:13;9.99;80.63
63051;SHT30;49136;47.416;19.402;2023-03-03T09:09:38;10.05;80.16
63051;SHT30;49136;47.416;19.402;2023-03-03T09:12:14;9.98;80.22
63051;SHT30;49136;47.416;19.402;2023-03-03T09:14:40;10.07;80.02
63051;SHT30;49136;47.416;19.402;2023-03-03T09:17:25;10.21;79.60
63051;SHT30;49136;47.416;19.402;2023-03-03T09:19:59;10.16;79.64
63051;SHT30;49136;47.416;19.402;2023-03-03T09:22:27;10.15;80.26
63051;SHT30;49136;47.416;19.402;2023-03-03T09:24:55;10.33;79.45
63051;SHT30;49136;47.416;19.402;2023-03-03T09:27:29;10.35;79.16
63051;SHT30;49136;47.416;19.402;2023-03-03T09:32:48;10.14;79.58
63051;SHT30;49136;47.416;19.402;2023-03-03T09:35:35;10.12;79.63
63051;SHT30;49136;47.416;19.402;2023-03-03T09:38:27;10.22;79.17
63051;SHT30;49136;47.416;19.402;2023-03-03T09:47:05;10.35;78.58
63051;SHT30;49136;47.416;19.402;2023-03-03T10:06:27;11.66;74.79
63051;SHT30;49136;47.416;19.402;2023-03-03T10:11:52;12.30;73.69
63051;SHT30;49136;47.416;19.402;2023-03-03T10:14:24;12.60;72.92
63051;SHT30;49136;47.416;19.402;2023-03-03T10:19:41;13.21;71.55
63051;SHT30;49136;47.416;19.402;2023-03-03T10:22:29;13.38;70.93
63051;SHT30;49136;47.416;19.402;2023-03-03T10:25:14;13.20;70.77
63051;SHT30;49136;47.416;19.402;2023-03-03T10:28:14;13.43;70.97
63051;SHT30;49136;47.416;19.402;2023-03-03T10:31:06;13.44;69.93
63051;SHT30;49136;47.416;19.402;2023-03-03T10:36:27;13.34;70.88
63051;SHT30;49136;47.416;19.402;2023-03-03T10:41:39;13.57;68.57
63051;SHT30;49136;47.416;19.402;2023-03-03T10:52:42;13.47;68.43
63051;SHT30;49136;47.416;19.402;2023-03-03T11:00:45;13.85;67.75
63051;SHT30;49136;47.416;19.402;2023-03-03T11:14:12;14.39;65.71
63051;SHT30;49136;47.416;19.402;2023-03-03T11:17:03;14.77;66.26
63051;SHT30;49136;47.416;19.402;2023-03-03T11:25:18;15.31;64.07
63051;SHT30;49136;47.416;19.402;2023-03-03T11:32:56;14.79;65.64
63051;SHT30;49136;47.416;19.402;2023-03-03T11:40:56;14.96;65.06
63051;SHT30;49136;47.416;19.402;2023-03-03T11:43:31;14.82;64.36
63051;SHT30;49136;47.416;19.402;2023-03-03T11:46:04;15.15;64.92
63051;SHT30;49136;47.416;19.402;2023-03-03T11:48:56;15.32;63.76
63051;SHT30;49136;47.416;19.402;2023-03-03T11:51:40;15.62;63.34
63051;SHT30;49136;47.416;19.402;2023-03-03T11:54:29;15.15;63.77
63051;SHT30;49136;47.416;19.402;2023-03-03T11:57:18;15.39;62.79
63051;SHT30;49136;47.416;19.402;2023-03-03T12:00:07;15.46;63.35
63051;SHT30;49136;47.416;19.402;2023-03-03T12:05:37;15.41;62.60
63051;SHT30;49136;47.416;19.402;2023-03-03T12:10:50;15.39;63.46
63051;SHT30;49136;47.416;19.402;2023-03-03T12:33:00;15.07;63.28
63051;SHT30;49136;47.416;19.402;2023-03-03T12:39:02;15.24;62.29
63051;SHT30;49136;47.416;19.402;2023-03-03T12:44:25;15.17;64.38
63051;SHT30;49136;47.416;19.402;2023-03-03T12:47:07;15.56;63.26
63051;SHT30;49136;47.416;19.402;2023-03-03T13:02:59;15.32;63.39
63051;SHT30;49136;47.416;19.402;2023-03-03T13:07:58;15.43;62.11
63051;SHT30;49136;47.416;19.402;2023-03-03T13:10:35;15.35;62.17
63051;SHT30;49136;47.416;19.402;2023-03-03T13:13:11;15.42;63.46
63051;SHT30;49136;47.416;19.402;2023-03-03T13:18:39;15.25;61.70
63051;SHT30;49136;47.416;19.402;2023-03-03T13:21:14;14.87;63.06
63051;SHT30;49136;47.416;19.402;2023-03-03T13:26:59;14.96;62.71
63051;SHT30;49136;47.416;19.402;2023-03-03T13:29:55;15.25;62.55
63051;SHT30;49136;47.416;19.402;2023-03-03T13:32:26;15.11;62.79
63051;SHT30;49136;47.416;19.402;2023-03-03T13:35:01;15.15;62.07
63051;SHT30;49136;47.416;19.402;2023-03-03T13:37:37;15.17;62.44
63051;SHT30;49136;47.416;19.402;2023-03-03T13:40:15;15.12;62.59
63051;SHT30;49136;47.416;19.402;2023-03-03T13:43:16;15.43;62.03
63051;SHT30;49136;47.416;19.402;2023-03-03T13:45:53;15.23;63.37
63051;SHT30;49136;47.416;19.402;2023-03-03T13:51:30;15.07;62.66
63051;SHT30;49136;47.416;19.402;2023-03-03T13:54:14;15.31;62.43
63051;SHT30;49136;47.416;19.402;2023-03-03T14:04:50;14.35;64.29
63051;SHT30;49136;47.416;19.402;2023-03-03T14:07:21;14.38;64.35
63051;SHT30;49136;47.416;19.402;2023-03-03T14:10:02;14.05;64.27
63051;SHT30;49136;47.416;19.402;2023-03-03T14:15:26;13.75;65.31
63051;SHT30;49136;47.416;19.402;2023-03-03T14:21:10;13.54;66.17
63051;SHT30;49136;47.416;19.402;2023-03-03T14:24:01;13.37;67.19
63051;SHT30;49136;47.416;19.402;2023-03-03T14:26:48;13.28;67.32
63051;SHT30;49136;47.416;19.402;2023-03-03T14:31:52;12.74;68.10
63051;SHT30;49136;47.416;19.402;2023-03-03T14:34:36;12.82;68.86
63051;SHT30;49136;47.416;19.402;2023-03-03T14:37:26;12.74;69.11
63051;SHT30;49136;47.416;19.402;2023-03-03T14:40:15;12.51;69.00
63051;SHT30;49136;47.416;19.402;2023-03-03T14:42:54;12.51;69.38
63051;SHT30;49136;47.416;19.402;2023-03-03T14:45:36;12.38;69.75
63051;SHT30;49136;47.416;19.402;2023-03-03T14:50:47;12.41;69.69
63051;SHT30;49136;47.416;19.402;2023-03-03T14:53:33;12.26;69.98
63051;SHT30;49136;47.416;19.402;2023-03-03T14:58:51;12.15;71.10
63051;SHT30;49136;47.416;19.402;2023-03-03T15:01:22;12.16;71.03
63051;SHT30;49136;47.416;19.402;2023-03-03T15:11:58;11.67;72.96
63051;SHT30;49136;47.416;19.402;2023-03-03T15:14:45;11.47;73.12
63051;SHT30;49136;47.416;19.402;2023-03-03T15:17:27;11.37;73.63
63051;SHT30;49136;47.416;19.402;2023-03-03T15:26:18;11.14;74.70
63051;SHT30;49136;47.416;19.402;2023-03-03T15:37:35;10.63;76.33
63051;SHT30;49136;47.416;19.402;2023-03-03T15:40:15;10.60;76.53
63051;SHT30;49136;47.416;19.402;2023-03-03T15:46:00;10.28;77.68
63051;SHT30;49136;47.416;19.402;2023-03-03T15:56:56;9.94;78.97
63051;SHT30;49136;47.416;19.402;2023-03-03T15:59:34;9.77;79.33
63051;SHT30;49136;47.416;19.402;2023-03-03T16:05:02;9.50;80.36
63051;SHT30;49136;47.416;19.402;2023-03-03T16:10:20;9.08;81.71
63051;SHT30;49136;47.416;19.402;2023-03-03T16:13:20;8.90;82.17
63051;SHT30;49136;47.416;19.402;2023-03-03T16:15:56;8.70;83.19
63051;SHT30;49136;47.416;19.402;2023-03-03T16:19:10;8.52;83.87
63051;SHT30;49136;47.416;19.402;2023-03-03T16:26:59;7.96;85.31
63051;SHT30;49136;47.416;19.402;2023-03-03T16:32:28;7.67;86.98
63051;SHT30;49136;47.416;19.402;2023-03-03T16:41:03;7.12;88.62
63051;SHT30;49136;47.416;19.402;2023-03-03T16:46:28;6.88;89.88
63051;SHT30;49136;47.416;19.402;2023-03-03T16:49:26;6.64;89.49
63051;SHT30;49136;47.416;19.402;2023-03-03T16:57:33;6.12;90.96
63051;SHT30;49136;47.416;19.402;2023-03-03T17:05:19;5.86;92.85
63051;SHT30;49136;47.416;19.402;2023-03-03T17:13:21;5.84;93.93
63051;SHT30;49136;47.416;19.402;2023-03-03T17:16:04;5.73;93.91
63051;SHT30;49136;47.416;19.402;2023-03-03T17:21:02;5.59;94.43
63051;SHT30;49136;47.416;19.402;2023-03-03T17:24:18;5.49;95.06
63051;SHT30;49136;47.416;19.402;2023-03-03T17:27:02;5.40;95.24
63051;SHT30;49136;47.416;19.402;2023-03-03T17:29:49;5.35;95.41
63051;SHT30;49136;47.416;19.402;2023-03-03T17:40:52;5.11;96.48
63051;SHT30;49136;47.416;19.402;2023-03-03T17:45:54;5.05;97.15
63051;SHT30;49136;47.416;19.402;2023-03-03T17:48:33;4.97;96.87
63051;SHT30;49136;47.416;19.402;2023-03-03T17:51:26;4.77;97.22
63051;SHT30;49136;47.416;19.402;2023-03-03T17:54:04;4.70;97.90
63051;SHT30;49136;47.416;19.402;2023-03-03T17:57:06;4.55;97.74
63051;SHT30;49136;47.416;19.402;2023-03-03T18:07:54;4.33;99.41
63051;SHT30;49136;47.416;19.402;2023-03-03T18:19:11;4.03;99.99
63051;SHT30;49136;47.416;19.402;2023-03-03T18:24:26;4.03;99.99
63051;SHT30;49136;47.416;19.402;2023-03-03T18:26:53;3.96;99.99
63051;SHT30;49136;47.416;19.402;2023-03-03T18:29:26;3.86;99.99
63051;SHT30;49136;47.416;19.402;2023-03-03T18:36:58;3.31;99.99
63051;SHT30;49136;47.416;19.402;2023-03-03T18:39:41;3.28;99.99
63051;SHT30;49136;47.416;19.402;2023-03-03T18:44:36;3.22;99.99
63051;SHT30;49136;47.416;19.402;2023-03-03T18:47:02;3.20;99.99
63051;SHT30;49136;47.416;19.402;2023-03-03T18:52:30;2.95;99.99
63051;SHT30;49136;47.416;19.402;2023-03-03T18:57:38;2.91;99.99
63051;SHT30;49136;47.416;19.402;2023-03-03T19:00:28;2.89;99.99
63051;SHT30;49136;47.416;19.402;2023-03-03T19:02:58;2.68;99.99
63051;SHT30;49136;47.416;19.402;2023-03-03T19:05:35;2.82;99.99
63051;SHT30;49136;47.416;19.402;2023-03-03T19:11:01;2.72;99.99
63051;SHT30;49136;47.416;19.402;2023-03-03T19:16:01;2.36;99.99
63051;SHT30;49136;47.416;19.402;2023-03-03T19:18:32;2.28;99.99
63051;SHT30;49136;47.416;19.402;2023-03-03T19:21:06;2.36;99.99
63051;SHT30;49136;47.416;19.402;2023-03-03T19:23:58;2.19;99.99
63051;SHT30;49136;47.416;19.402;2023-03-03T19:32:02;1.77;99.99
63051;SHT30;49136;47.416;19.402;2023-03-03T19:43:36;1.60;99.99
63051;SHT30;49136;47.416;19.402;2023-03-03T19:52:02;1.39;99.99
63051;SHT30;49136;47.416;19.402;2023-03-03T19:57:41;1.17;99.99
63051;SHT30;49136;47.416;19.402;2023-03-03T20:00:27;1.01;99.99
63051;SHT30;49136;47.416;19.402;2023-03-03T20:06:36;0.90;99.99
63051;SHT30;49136;47.416;19.402;2023-03-03T20:09:15;0.97;99.99
63051;SHT30;49136;47.416;19.402;2023-03-03T20:14:41;0.93;99.99
63051;SHT30;49136;47.416;19.402;2023-03-03T20:25:24;0.59;99.99
63051;SHT30;49136;47.416;19.402;2023-03-03T20:42:19;0.13;99.99
63051;SHT30;49136;47.416;19.402;2023-03-03T20:47:52;-0.04;99.99
63051;SHT30;49136;47.416;19.402;2023-03-03T20:55:58;-0.32;99.99
63051;SHT30;49136;47.416;19.402;2023-03-03T21:01:32;-0.07;99.99
63051;SHT30;49136;47.416;19.402;2023-03-03T21:04:30;-0.09;99.99
63051;SHT30;49136;47.416;19.402;2023-03-03T21:06:57;-0.15;99.99
63051;SHT30;49136;47.416;19.402;2023-03-03T21:11:58;-0.09;99.99
63051;SHT30;49136;47.416;19.402;2023-03-03T21:14:27;-0.15;99.99
63051;SHT30;49136;47.416;19.402;2023-03-03T21:16:57;-0.28;99.99
63051;SHT30;49136;47.416;19.402;2023-03-03T21:21:50;-0.45;99.99
63051;SHT30;49136;47.416;19.402;2023-03-03T21:24:16;-0.52;99.99
63051;SHT30;49136;47.416;19.402;2023-03-03T21:26:51;-0.59;99.99
63051;SHT30;49136;47.416;19.402;2023-03-03T21:32:02;-0.61;99.99
63051;SHT30;49136;47.416;19.402;2023-03-03T21:36:57;-0.77;99.99
63051;SHT30;49136;47.416;19.402;2023-03-03T21:39:30;-0.83;99.99
63051;SHT30;49136;47.416;19.402;2023-03-03T21:47:11;-0.83;99.99
63051;SHT30;49136;47.416;19.402;2023-03-03T21:49:43;-0.90;99.99
63051;SHT30;49136;47.416;19.402;2023-03-03T21:52:09;-0.90;99.99
63051;SHT30;49136;47.416;19.402;2023-03-03T21:54:35;-1.05;99.99
63051;SHT30;49136;47.416;19.402;2023-03-03T21:57:00;-1.15;99.99
63051;SHT30;49136;47.416;19.402;2023-03-03T21:59:26;-1.19;99.99
63051;SHT30;49136;47.416;19.402;2023-03-03T22:01:51;-1.18;99.99
63051;SHT30;49136;47.416;19.402;2023-03-03T22:04:17;-1.25;99.99
63051;SHT30;49136;47.416;19.402;2023-03-03T22:06:43;-1.24;99.99
63051;SHT30;49136;47.416;19.402;2023-03-03T22:09:08;-1.22;99.99
63051;SHT30;49136;47.416;19.402;2023-03-03T22:11:34;-1.27;99.99
63051;SHT30;49136;47.416;19.402;2023-03-03T22:14:00;-1.16;99.99
63051;SHT30;49136;47.416;19.402;2023-03-03T22:16:25;-1.05;99.99
63051;SHT30;49136;47.416;19.402;2023-03-03T22:18:50;-0.98;99.99
63051;SHT30;49136;47.416;19.402;2023-03-03T22:21:16;-0.80;99.99
63051;SHT30;49136;47.416;19.402;2023-03-03T22:23:41;-0.77;99.99
63051;SHT30;49136;47.416;19.402;2023-03-03T22:26:07;-0.86;99.99
63051;SHT30;49136;47.416;19.402;2023-03-03T22:28:32;-1.09;99.99